createdAt,value
2018-12-31T00:01:07.734Z,30.97
2018-12-31T00:03:37.234Z,29.87
2018-12-31T00:06:06.687Z,29.87
2018-12-31T00:08:37.486Z,29.30
2018-12-31T00:11:08.592Z,28.50
2018-12-31T00:13:38.202Z,31.33
2018-12-31T00:16:07.719Z,28.83
2018-12-31T00:18:37.832Z,29.50
2018-12-31T00:21:07.642Z,28.23
2018-12-31T00:23:37.062Z,28.90
2018-12-31T00:26:06.637Z,27.10
2018-12-31T00:28:36.251Z,27.50
2018-12-31T00:31:05.955Z,29.23
2018-12-31T00:33:35.481Z,27.37
2018-12-31T00:36:05.023Z,27.70
2018-12-31T00:38:34.654Z,27.40
2018-12-31T00:41:04.290Z,28.37
2018-12-31T00:43:33.936Z,27.90
2018-12-31T00:46:03.524Z,27.93
2018-12-31T00:48:37.115Z,28.50
2018-12-31T00:51:07.152Z,28.13
2018-12-31T00:53:37.186Z,28.17
2018-12-31T00:56:08.381Z,28.37
2018-12-31T00:58:37.825Z,27.63
2018-12-31T01:01:09.752Z,27.73
2018-12-31T01:03:40.937Z,27.20
2018-12-31T01:06:10.325Z,27.93
2018-12-31T01:08:41.224Z,27.40
2018-12-31T01:11:10.681Z,27.00
2018-12-31T01:13:41.355Z,26.57
2018-12-31T01:16:11.810Z,27.10
2018-12-31T01:18:41.258Z,26.47
2018-12-31T01:21:10.802Z,26.00
2018-12-31T01:23:40.234Z,26.73
2018-12-31T01:26:09.772Z,27.57
2018-12-31T01:28:39.240Z,26.20
2018-12-31T01:31:09.858Z,27.70
2018-12-31T01:33:42.688Z,26.27
2018-12-31T01:36:12.152Z,26.53
2018-12-31T01:38:41.665Z,24.77
2018-12-31T01:41:11.296Z,26.60
2018-12-31T01:43:42.764Z,26.70
2018-12-31T01:46:12.262Z,25.90
2018-12-31T01:48:41.712Z,26.97
2018-12-31T01:51:11.563Z,27.87
2018-12-31T01:53:41.105Z,25.17
2018-12-31T01:56:10.925Z,26.00
2018-12-31T01:58:40.519Z,25.13
2018-12-31T02:01:09.972Z,25.40
2018-12-31T02:03:39.507Z,24.80
2018-12-31T02:06:10.143Z,24.70
2018-12-31T02:08:39.580Z,23.67
2018-12-31T02:11:09.073Z,23.50
2018-12-31T02:13:38.519Z,24.47
2018-12-31T02:16:07.905Z,23.37
2018-12-31T02:18:37.369Z,24.47
2018-12-31T02:21:09.050Z,23.57
2018-12-31T02:23:38.458Z,24.33
2018-12-31T02:26:09.224Z,23.60
2018-12-31T02:28:38.680Z,23.57
2018-12-31T02:31:08.308Z,24.73
2018-12-31T02:33:38.010Z,24.67
2018-12-31T02:36:07.559Z,25.00
2018-12-31T02:38:37.061Z,25.47
2018-12-31T02:41:06.515Z,23.53
2018-12-31T02:43:37.267Z,22.70
2018-12-31T02:46:06.765Z,24.33
2018-12-31T02:48:36.308Z,24.07
2018-12-31T02:51:05.757Z,22.90
2018-12-31T02:53:35.221Z,23.17
2018-12-31T02:56:05.939Z,23.83
2018-12-31T02:58:35.470Z,23.13
2018-12-31T03:01:04.988Z,22.60
2018-12-31T03:03:42.815Z,21.07
2018-12-31T03:06:12.328Z,22.07
2018-12-31T03:08:41.783Z,20.93
2018-12-31T03:11:12.812Z,21.53
2018-12-31T03:13:42.311Z,21.37
2018-12-31T03:16:11.970Z,21.70
2018-12-31T03:18:41.555Z,22.97
2018-12-31T03:21:10.945Z,21.00
2018-12-31T03:23:42.729Z,19.57
2018-12-31T03:26:19.759Z,20.63
2018-12-31T03:28:49.715Z,20.57
2018-12-31T03:31:19.441Z,20.27
2018-12-31T03:33:50.547Z,19.83
2018-12-31T03:36:21.085Z,20.77
2018-12-31T03:38:54.650Z,20.77
2018-12-31T03:41:21.599Z,18.53
2018-12-31T03:43:51.181Z,20.07
2018-12-31T03:46:20.549Z,19.63
2018-12-31T03:48:52.766Z,19.93
2018-12-31T03:51:22.252Z,18.83
2018-12-31T03:53:51.826Z,19.77
2018-12-31T03:56:21.354Z,20.10
2018-12-31T03:58:51.980Z,19.80
2018-12-31T04:01:21.525Z,21.50
2018-12-31T04:03:51.034Z,20.37
2018-12-31T04:06:24.563Z,19.60
2018-12-31T04:08:54.100Z,18.97
2018-12-31T04:11:23.550Z,18.60
2018-12-31T04:13:52.978Z,19.70
2018-12-31T04:16:22.475Z,19.43
2018-12-31T04:18:51.961Z,19.23
2018-12-31T04:21:21.752Z,20.00
2018-12-31T04:23:51.198Z,18.93
2018-12-31T04:26:20.609Z,19.77
2018-12-31T04:28:50.047Z,20.23
2018-12-31T04:31:19.542Z,20.23
2018-12-31T04:33:49.088Z,18.33
2018-12-31T04:36:18.529Z,18.97
2018-12-31T04:38:47.975Z,18.97
2018-12-31T04:41:17.468Z,19.17
2018-12-31T04:43:46.917Z,18.10
2018-12-31T04:46:17.862Z,19.13
2018-12-31T04:48:47.335Z,19.90
2018-12-31T04:51:16.774Z,18.67
2018-12-31T04:53:46.164Z,18.23
2018-12-31T04:56:15.587Z,18.90
2018-12-31T04:58:45.319Z,18.23
2018-12-31T05:01:14.825Z,17.97
2018-12-31T05:03:44.280Z,18.13
2018-12-31T05:06:13.731Z,18.57
2018-12-31T05:08:43.193Z,17.13
2018-12-31T05:11:12.665Z,18.43
2018-12-31T05:13:42.097Z,18.20
2018-12-31T05:16:11.598Z,16.97
2018-12-31T05:18:41.004Z,18.33
2018-12-31T05:21:10.438Z,16.83
2018-12-31T05:23:39.976Z,17.57
2018-12-31T05:26:09.320Z,16.47
2018-12-31T05:28:38.630Z,17.60
2018-12-31T05:31:08.023Z,17.87
2018-12-31T05:33:37.489Z,16.90
2018-12-31T05:36:06.986Z,17.50
2018-12-31T05:38:36.399Z,17.13
2018-12-31T05:41:05.801Z,17.47
2018-12-31T05:43:35.160Z,16.83
2018-12-31T05:46:04.465Z,16.63
2018-12-31T05:48:33.913Z,15.43
2018-12-31T05:51:03.355Z,16.57
2018-12-31T05:53:32.805Z,16.43
2018-12-31T05:56:02.189Z,16.77
2018-12-31T05:58:31.601Z,17.03
2018-12-31T06:01:01.005Z,15.90
2018-12-31T06:03:30.467Z,16.33
2018-12-31T06:05:59.955Z,16.27
2018-12-31T06:08:30.537Z,15.93
2018-12-31T06:11:00.054Z,17.20
2018-12-31T06:13:29.542Z,15.83
2018-12-31T06:15:58.962Z,14.83
2018-12-31T06:18:28.378Z,16.90
2018-12-31T06:20:58.056Z,15.00
2018-12-31T06:23:27.475Z,14.83
2018-12-31T06:25:56.894Z,15.67
2018-12-31T06:28:26.352Z,15.20
2018-12-31T06:30:55.774Z,14.37
2018-12-31T06:33:25.261Z,15.10
2018-12-31T06:35:54.663Z,14.87
2018-12-31T06:38:24.218Z,14.57
2018-12-31T06:40:53.689Z,14.23
2018-12-31T06:43:23.045Z,13.87
2018-12-31T06:45:52.489Z,15.17
2018-12-31T06:48:21.928Z,13.27
2018-12-31T06:50:52.368Z,14.60
2018-12-31T06:53:21.824Z,13.60
2018-12-31T06:55:54.259Z,13.73
2018-12-31T06:58:25.389Z,14.63
2018-12-31T07:00:54.979Z,14.47
2018-12-31T07:03:24.476Z,13.60
2018-12-31T07:05:53.844Z,13.03
2018-12-31T07:08:23.186Z,13.00
2018-12-31T07:10:53.864Z,13.40
2018-12-31T07:13:23.251Z,12.33
2018-12-31T07:15:52.735Z,12.97
2018-12-31T07:18:22.398Z,11.97
2018-12-31T07:20:51.801Z,11.70
2018-12-31T07:23:23.306Z,12.50
2018-12-31T07:25:52.685Z,12.27
2018-12-31T07:28:24.613Z,12.77
2018-12-31T07:30:53.992Z,17.13
2018-12-31T07:33:23.615Z,17.55
2018-12-31T07:35:53.106Z,12.47
2018-12-31T07:38:22.594Z,11.43
2018-12-31T07:40:52.028Z,10.33
2018-12-31T07:43:21.418Z,10.13
2018-12-31T07:45:50.866Z,10.07
2018-12-31T07:48:20.294Z,10.70
2018-12-31T07:50:49.738Z,10.97
2018-12-31T07:53:19.177Z,10.87
2018-12-31T07:55:48.627Z,10.60
2018-12-31T07:58:18.264Z,10.23
2018-12-31T08:00:47.808Z,10.23
2018-12-31T08:03:17.540Z,9.20
2018-12-31T08:05:46.984Z,9.87
2018-12-31T08:08:16.422Z,9.33
2018-12-31T08:10:45.934Z,9.00
2018-12-31T08:13:15.469Z,9.50
2018-12-31T08:15:45.004Z,8.83
2018-12-31T08:18:14.418Z,8.57
2018-12-31T08:20:43.743Z,8.60
2018-12-31T08:23:13.145Z,8.73
2018-12-31T08:25:42.594Z,8.40
2018-12-31T08:28:12.194Z,8.93
2018-12-31T08:30:41.554Z,8.97
2018-12-31T08:33:10.982Z,8.77
2018-12-31T08:35:40.313Z,9.23
2018-12-31T08:38:09.694Z,10.77
2018-12-31T08:40:39.198Z,10.13
2018-12-31T08:43:08.973Z,8.93
2018-12-31T08:45:38.411Z,11.40
2018-12-31T08:48:07.870Z,9.43
2018-12-31T08:50:37.359Z,8.80
2018-12-31T08:53:06.848Z,7.87
2018-12-31T08:55:38.203Z,7.13
2018-12-31T08:58:07.319Z,7.07
2018-12-31T09:00:37.584Z,7.50
2018-12-31T09:03:07.979Z,7.47
2018-12-31T09:06:03.054Z,7.90
2018-12-31T09:08:32.574Z,7.73
2018-12-31T09:11:01.905Z,6.73
2018-12-31T09:13:31.558Z,7.20
2018-12-31T09:16:00.998Z,7.43
2018-12-31T09:18:30.503Z,7.00
2018-12-31T09:20:59.899Z,8.30
2018-12-31T09:23:29.364Z,8.17
2018-12-31T09:25:59.178Z,7.80
2018-12-31T09:28:28.648Z,7.37
2018-12-31T09:30:58.191Z,7.30
2018-12-31T09:33:27.667Z,7.77
2018-12-31T09:35:57.291Z,8.17
2018-12-31T09:38:26.728Z,7.30
2018-12-31T09:40:56.394Z,7.83
2018-12-31T09:43:25.963Z,8.03
2018-12-31T09:45:55.378Z,7.93
2018-12-31T09:48:24.806Z,7.30
2018-12-31T09:50:54.289Z,7.77
2018-12-31T09:53:23.784Z,7.50
2018-12-31T09:55:53.231Z,7.30
2018-12-31T09:58:22.734Z,8.00
2018-12-31T10:00:52.153Z,8.47
2018-12-31T10:03:21.569Z,8.83
2018-12-31T10:05:51.057Z,8.87
2018-12-31T10:08:20.850Z,9.90
2018-12-31T10:10:50.265Z,8.87
2018-12-31T10:13:19.690Z,9.67
2018-12-31T10:15:49.155Z,8.90
2018-12-31T10:18:18.613Z,8.10
2018-12-31T10:20:48.202Z,8.50
2018-12-31T10:23:17.570Z,8.77
2018-12-31T10:25:46.942Z,9.17
2018-12-31T10:28:16.373Z,9.17
2018-12-31T10:30:45.746Z,9.63
2018-12-31T10:33:15.255Z,9.00
2018-12-31T10:35:44.644Z,9.30
2018-12-31T10:38:14.017Z,9.70
2018-12-31T10:40:43.408Z,10.10
2018-12-31T10:43:12.870Z,11.10
2018-12-31T10:45:42.275Z,10.80
2018-12-31T10:48:11.770Z,10.73
2018-12-31T10:50:41.224Z,11.97
2018-12-31T10:53:10.681Z,11.67
2018-12-31T10:55:40.062Z,13.10
2018-12-31T10:58:09.537Z,11.67
2018-12-31T11:00:38.966Z,12.07
2018-12-31T11:03:08.554Z,11.93
2018-12-31T11:05:37.998Z,11.90
2018-12-31T11:08:07.425Z,10.83
2018-12-31T11:10:36.988Z,10.13
2018-12-31T11:13:06.436Z,10.07
2018-12-31T11:15:35.875Z,10.17
2018-12-31T11:18:05.267Z,10.00
2018-12-31T11:20:34.635Z,10.40
2018-12-31T11:23:04.043Z,9.37
2018-12-31T11:25:33.548Z,8.10
2018-12-31T11:28:02.966Z,10.27
2018-12-31T11:30:32.348Z,9.83
2018-12-31T11:33:01.836Z,8.50
2018-12-31T11:35:31.298Z,8.90
2018-12-31T11:38:00.854Z,8.97
2018-12-31T11:40:30.266Z,8.43
2018-12-31T11:42:59.731Z,8.27
2018-12-31T11:45:29.226Z,8.17
2018-12-31T11:47:58.642Z,7.30
2018-12-31T11:50:28.044Z,7.33
2018-12-31T11:53:01.141Z,7.87
2018-12-31T11:55:30.730Z,8.10
2018-12-31T11:58:00.172Z,7.87
2018-12-31T12:00:31.771Z,8.77
2018-12-31T12:03:02.314Z,12.00
2018-12-31T12:05:31.855Z,12.37
2018-12-31T12:08:01.342Z,9.97
2018-12-31T12:10:30.730Z,8.53
2018-12-31T12:13:00.162Z,8.60
2018-12-31T12:15:29.593Z,8.00
2018-12-31T12:17:59.293Z,8.00
2018-12-31T12:20:28.982Z,7.07
2018-12-31T12:22:58.397Z,7.83
2018-12-31T12:25:27.841Z,7.77
2018-12-31T12:27:57.265Z,7.70
2018-12-31T12:30:27.080Z,8.13
2018-12-31T12:32:56.532Z,8.13
2018-12-31T12:35:26.013Z,7.67
2018-12-31T12:37:55.446Z,7.47
2018-12-31T12:40:25.357Z,7.50
2018-12-31T12:42:56.649Z,7.70
2018-12-31T12:45:26.066Z,8.50
2018-12-31T12:47:57.958Z,9.67
2018-12-31T12:50:27.369Z,9.60
2018-12-31T12:52:57.084Z,10.93
2018-12-31T12:55:26.454Z,10.67
2018-12-31T12:57:55.863Z,9.93
2018-12-31T13:00:25.279Z,8.97
2018-12-31T13:02:54.744Z,10.00
2018-12-31T13:05:24.482Z,9.67
2018-12-31T13:07:53.912Z,10.93
2018-12-31T13:10:23.374Z,10.53
2018-12-31T13:12:57.611Z,11.60
2018-12-31T13:15:27.140Z,11.27
2018-12-31T13:17:56.546Z,12.03
2018-12-31T13:20:25.988Z,11.47
2018-12-31T13:22:55.430Z,12.97
2018-12-31T13:25:24.869Z,12.73
2018-12-31T13:27:54.546Z,13.13
2018-12-31T13:30:24.038Z,13.30
2018-12-31T13:32:53.489Z,15.60
2018-12-31T13:35:23.351Z,18.00
2018-12-31T13:37:52.822Z,16.90
2018-12-31T13:40:22.661Z,15.70
2018-12-31T13:42:52.128Z,15.90
2018-12-31T13:45:21.549Z,16.57
2018-12-31T13:47:51.028Z,17.60
2018-12-31T13:50:20.457Z,16.33
2018-12-31T13:52:50.018Z,17.70
2018-12-31T13:55:19.466Z,18.27
2018-12-31T13:57:48.872Z,17.03
2018-12-31T14:00:18.341Z,17.50
2018-12-31T14:02:47.775Z,18.27
2018-12-31T14:05:17.919Z,17.37
2018-12-31T14:07:47.347Z,17.53
2018-12-31T14:10:16.706Z,19.57
2018-12-31T14:12:46.129Z,17.40
2018-12-31T14:15:15.558Z,18.37
2018-12-31T14:17:45.004Z,17.60
2018-12-31T14:20:14.453Z,16.40
2018-12-31T14:22:43.969Z,17.07
2018-12-31T14:25:13.428Z,16.73
2018-12-31T14:27:43.209Z,16.00
2018-12-31T14:30:12.671Z,16.10
2018-12-31T14:32:42.109Z,15.97
2018-12-31T14:35:11.601Z,16.47
2018-12-31T14:37:41.083Z,16.80
2018-12-31T14:40:13.107Z,15.90
2018-12-31T14:42:42.671Z,15.23
2018-12-31T14:45:12.090Z,16.93
2018-12-31T14:47:41.493Z,19.47
2018-12-31T14:50:10.939Z,15.70
2018-12-31T14:52:40.364Z,16.17
2018-12-31T14:55:09.808Z,17.17
2018-12-31T14:57:39.338Z,16.87
2018-12-31T15:00:11.111Z,16.30
2018-12-31T15:02:40.843Z,15.83
2018-12-31T15:05:10.525Z,15.27
2018-12-31T15:07:40.030Z,16.40
2018-12-31T15:10:09.797Z,16.90
2018-12-31T15:12:39.222Z,16.27
2018-12-31T15:15:12.049Z,15.30
2018-12-31T15:17:41.520Z,16.90
2018-12-31T15:20:11.292Z,15.00
2018-12-31T15:22:40.761Z,17.03
2018-12-31T15:25:10.232Z,18.20
2018-12-31T15:27:39.702Z,20.63
2018-12-31T15:30:09.484Z,26.60
2018-12-31T15:32:38.950Z,20.30
2018-12-31T15:35:08.679Z,20.57
2018-12-31T15:37:38.129Z,17.40
2018-12-31T15:40:08.727Z,19.13
2018-12-31T15:42:38.266Z,18.40
2018-12-31T15:45:08.593Z,18.97
2018-12-31T15:47:38.105Z,19.63
2018-12-31T15:50:08.877Z,20.50
2018-12-31T15:52:38.404Z,22.00
2018-12-31T15:55:08.047Z,24.30
2018-12-31T15:57:37.570Z,22.13
2018-12-31T16:00:09.077Z,25.10
2018-12-31T16:02:38.539Z,23.90
2018-12-31T16:05:08.778Z,18.63
2018-12-31T16:07:45.337Z,16.70
2018-12-31T16:10:09.625Z,19.53
2018-12-31T16:12:39.089Z,20.40
2018-12-31T16:15:09.600Z,24.03
2018-12-31T16:17:39.201Z,22.67
2018-12-31T16:20:08.774Z,23.80
2018-12-31T16:22:38.399Z,23.20
2018-12-31T16:25:08.242Z,18.80
2018-12-31T16:27:37.723Z,26.57
2018-12-31T16:30:07.942Z,30.77
2018-12-31T16:32:37.502Z,24.90
2018-12-31T16:35:07.053Z,23.73
2018-12-31T16:37:36.779Z,22.50
2018-12-31T16:40:06.894Z,19.73
2018-12-31T16:42:39.363Z,21.10
2018-12-31T16:45:09.096Z,20.80
2018-12-31T16:47:39.594Z,20.20
2018-12-31T16:50:09.261Z,19.50
2018-12-31T16:52:38.845Z,18.33
2018-12-31T16:55:08.463Z,16.40
2018-12-31T16:57:37.934Z,17.37
2018-12-31T17:00:07.798Z,14.90
2018-12-31T17:02:37.277Z,16.40
2018-12-31T17:05:07.302Z,16.60
2018-12-31T17:07:36.866Z,16.20
2018-12-31T17:10:07.837Z,17.23
2018-12-31T17:12:37.415Z,15.47
2018-12-31T17:15:07.082Z,17.00
2018-12-31T17:17:36.745Z,15.80
2018-12-31T17:20:06.709Z,16.20
2018-12-31T17:22:36.150Z,17.50
2018-12-31T17:25:06.039Z,17.37
2018-12-31T17:27:35.595Z,16.67
2018-12-31T17:30:05.805Z,18.40
2018-12-31T17:32:35.297Z,17.70
2018-12-31T17:35:05.224Z,16.60
2018-12-31T17:37:35.105Z,17.13
2018-12-31T17:40:04.760Z,16.50
2018-12-31T17:42:34.378Z,16.63
2018-12-31T17:45:04.103Z,15.77
2018-12-31T17:47:33.796Z,16.70
2018-12-31T17:50:03.600Z,19.85
2018-12-31T17:52:34.369Z,16.93
2018-12-31T17:55:04.100Z,18.43
2018-12-31T17:57:35.322Z,19.53
2018-12-31T18:00:06.070Z,20.57
2018-12-31T18:02:37.409Z,20.67
2018-12-31T18:05:07.100Z,20.87
2018-12-31T18:07:36.666Z,19.17
2018-12-31T18:10:07.581Z,20.47
2018-12-31T18:12:37.406Z,20.97
2018-12-31T18:15:06.896Z,26.00
2018-12-31T18:17:36.653Z,29.17
2018-12-31T18:20:07.302Z,28.00
2018-12-31T18:22:36.873Z,26.57
2018-12-31T18:25:06.465Z,25.03
2018-12-31T18:27:36.008Z,27.00
2018-12-31T18:30:06.108Z,27.20
2018-12-31T18:32:35.735Z,22.53
2018-12-31T18:35:05.333Z,22.60
2018-12-31T18:37:41.660Z,21.97
2018-12-31T18:40:06.424Z,23.03
2018-12-31T18:42:35.909Z,24.10
2018-12-31T18:45:05.530Z,27.53
2018-12-31T18:47:35.076Z,29.77
2018-12-31T18:50:05.050Z,30.03
2018-12-31T18:52:34.497Z,28.33
2018-12-31T18:55:04.060Z,32.43
2018-12-31T18:57:33.562Z,35.50
2018-12-31T19:00:03.044Z,45.67
2018-12-31T19:02:32.610Z,49.50
2018-12-31T19:05:02.140Z,51.60
2018-12-31T19:07:31.595Z,53.23
2018-12-31T19:10:01.145Z,49.73
2018-12-31T19:12:31.085Z,46.23
2018-12-31T19:15:00.813Z,44.73
2018-12-31T19:17:30.234Z,48.27
2018-12-31T19:19:59.719Z,43.73
2018-12-31T19:22:29.111Z,48.70
2018-12-31T19:24:58.903Z,36.00
2018-12-31T19:27:28.259Z,33.73
2018-12-31T19:29:57.706Z,36.50
2018-12-31T19:32:27.245Z,38.60
2018-12-31T19:34:56.721Z,36.20
2018-12-31T19:37:26.538Z,32.17
2018-12-31T19:39:55.978Z,32.10
2018-12-31T19:42:25.405Z,32.27
2018-12-31T19:44:54.917Z,28.97
2018-12-31T19:47:24.775Z,33.33
2018-12-31T19:49:54.510Z,38.40
2018-12-31T19:52:23.952Z,41.17
2018-12-31T19:54:53.425Z,42.27
2018-12-31T19:57:22.964Z,41.23
2018-12-31T19:59:52.465Z,36.87
2018-12-31T20:02:22.434Z,42.37
2018-12-31T20:04:51.904Z,33.73
2018-12-31T20:07:21.384Z,32.17
2018-12-31T20:09:50.858Z,32.10
2018-12-31T20:12:20.321Z,34.90
2018-12-31T20:14:50.041Z,34.67
2018-12-31T20:17:19.469Z,30.23
2018-12-31T20:19:52.069Z,29.07
2018-12-31T20:22:21.547Z,24.80
2018-12-31T20:24:50.996Z,21.83
2018-12-31T20:27:20.480Z,24.03
2018-12-31T20:29:49.918Z,23.43
2018-12-31T20:32:19.624Z,20.47
2018-12-31T20:34:49.162Z,22.33
2018-12-31T20:37:18.957Z,20.93
2018-12-31T20:39:48.900Z,23.23
2018-12-31T20:42:18.381Z,23.13
2018-12-31T20:44:47.830Z,22.20
2018-12-31T20:47:26.209Z,23.63
2018-12-31T20:49:55.718Z,21.40
2018-12-31T20:52:25.466Z,21.53
2018-12-31T20:54:54.923Z,22.07
2018-12-31T20:57:24.379Z,21.60
2018-12-31T20:59:53.863Z,19.27
2018-12-31T21:02:23.282Z,18.17
2018-12-31T21:04:53.217Z,18.60
2018-12-31T21:07:22.671Z,19.87
2018-12-31T21:09:53.192Z,19.47
2018-12-31T21:12:22.694Z,21.37
2018-12-31T21:14:52.153Z,21.87
2018-12-31T21:17:21.608Z,20.93
2018-12-31T21:19:51.091Z,22.50
2018-12-31T21:22:20.538Z,25.23
2018-12-31T21:24:49.983Z,23.93
2018-12-31T21:27:19.487Z,23.47
2018-12-31T21:29:49.262Z,25.70
2018-12-31T21:32:21.264Z,25.73
2018-12-31T21:34:51.579Z,25.30
2018-12-31T21:37:21.092Z,24.07
2018-12-31T21:39:50.586Z,25.87
2018-12-31T21:42:22.242Z,22.07
2018-12-31T21:44:51.614Z,17.87
2018-12-31T21:47:21.174Z,17.67
2018-12-31T21:49:50.689Z,20.40
2018-12-31T21:52:20.103Z,17.67
2018-12-31T21:54:49.561Z,19.07
2018-12-31T21:57:19.003Z,20.33
2018-12-31T21:59:48.500Z,19.33
2018-12-31T22:02:17.932Z,19.67
2018-12-31T22:04:47.394Z,22.27
2018-12-31T22:07:16.839Z,23.97
2018-12-31T22:09:46.252Z,22.17
2018-12-31T22:12:15.769Z,21.53
2018-12-31T22:14:45.267Z,22.33
2018-12-31T22:17:14.784Z,22.47
2018-12-31T22:19:44.434Z,25.23
2018-12-31T22:22:13.864Z,22.53
2018-12-31T22:24:43.454Z,49.30
2018-12-31T22:27:12.909Z,23.57
2018-12-31T22:29:42.373Z,25.97
2018-12-31T22:32:11.872Z,27.10
2018-12-31T22:34:41.356Z,22.57
2018-12-31T22:37:10.939Z,23.27
2018-12-31T22:39:40.437Z,23.30
2018-12-31T22:42:09.919Z,24.17
2018-12-31T22:44:39.420Z,19.40
2018-12-31T22:47:08.885Z,20.47
2018-12-31T22:49:38.436Z,19.90
2018-12-31T22:52:07.910Z,21.90
2018-12-31T22:54:37.412Z,22.03
2018-12-31T22:57:06.860Z,22.33
2018-12-31T22:59:36.326Z,22.03
2018-12-31T23:02:06.081Z,20.97
2018-12-31T23:04:35.560Z,21.53
2018-12-31T23:07:07.274Z,24.73
2018-12-31T23:09:41.179Z,53.33
2018-12-31T23:12:08.185Z,39.47
2018-12-31T23:14:37.721Z,37.93
2018-12-31T23:17:09.414Z,41.13
2018-12-31T23:19:41.896Z,51.83
2018-12-31T23:22:10.149Z,58.10
2018-12-31T23:24:40.018Z,52.53
2018-12-31T23:27:10.361Z,50.20
2018-12-31T23:29:40.281Z,54.73
2018-12-31T23:32:09.763Z,58.13
2018-12-31T23:34:39.220Z,47.00
2018-12-31T23:37:08.692Z,47.67
2018-12-31T23:39:38.187Z,37.73
2018-12-31T23:42:07.619Z,39.03
2018-12-31T23:44:37.145Z,29.17
2018-12-31T23:47:06.592Z,26.67
2018-12-31T23:49:36.000Z,24.17
2018-12-31T23:52:05.493Z,25.97
2018-12-31T23:54:35.061Z,25.30
2018-12-31T23:57:04.549Z,27.13
2018-12-31T23:59:33.958Z,25.37
